Wilsie, West Virginia
Current Conditions -  °F | °C
As of 6:15 AM on Sunday 21 Dec 2014 (Local Time) from KW22 Reporting Station
Overcast Overcast  
Wind Chill: 28°   Ceiling: 2700
Heat Index: 28°   Visibility: 10mi
Dew Point: 27°   Wind: 0mph
Humidity: 93%   Direction: NA
Pressure: 30.25"   Gusts: NA
Location:  38.69°N, 80.89°W
Report Text: KW22 211115Z AUTO 00000KT 10SM OVC027 M02/M03 A3025 RMK AO2
Loading
Personal Weather Stations






























Interactive Weather Map New forecast layout! Learn more

10-Day Weather Forecast

Advertisements
Track Severe Weather on mobile